Time;durP1;ratioP1;P1;durP2;ratioP2;P2;SDS_P1;SDS_P2;PMS_P1;PMS_P2;Temp;Humidity;BMP_temperature;BMP_pressure;BME280_temperature;BME280_humidity;BME280_pressure;Samples;Min_cycle;Max_cycle;Signal;HPM_P1;HPM_P2
2022/01/30 00:00:41;;;;;;;;;8.00;4.25;;;;;9.75;80.95;102376.09;5016056;28;45422;-76
2022/01/30 00:03:06;;;;;;;;;1.00;1.00;;;;;9.75;81.02;102391.94;5034489;28;45399;-75
2022/01/30 00:05:34;;;;;;;;;1.00;1.00;;;;;9.73;81.21;102388.41;5032874;28;45498;-76
2022/01/30 00:08:00;;;;;;;;;3.00;2.00;;;;;9.76;81.69;102387.53;5034736;28;45407;-76
2022/01/30 00:10:25;;;;;;;;;1.00;1.00;;;;;9.75;81.17;102376.09;5038096;28;45367;-76
2022/01/30 00:12:59;;;;;;;;;0.50;0.50;;;;;9.77;81.48;102376.97;5037551;28;45280;-76
2022/01/30 00:15:47;;;;;;;;;2.00;1.00;;;;;9.75;81.35;102369.94;5033009;28;45536;-77
2022/01/30 00:18:34;;;;;;;;;2.00;2.00;;;;;9.72;81.53;102376.06;5033407;28;45970;-77
2022/01/30 00:23:28;;;;;;;;;1.00;1.00;;;;;9.72;81.25;102365.50;5034128;28;45391;-77
2022/01/30 00:25:56;;;;;;;;;1.00;1.00;;;;;9.74;81.76;102379.59;5034044;28;45458;-76
2022/01/30 00:28:24;;;;;;;;;3.00;1.25;;;;;9.67;81.29;102361.91;5031829;28;46286;-77
2022/01/30 00:30:50;;;;;;;;;13.25;11.00;;;;;9.72;81.60;102364.63;5033276;28;45504;-77
2022/01/30 00:33:16;;;;;;;;;5.00;2.00;;;;;9.72;81.59;102370.78;5033411;28;45394;-75
2022/01/30 00:35:41;;;;;;;;;2.00;2.00;;;;;9.73;81.67;102367.28;5034245;28;45396;-77
2022/01/30 00:38:11;;;;;;;;;6.00;3.00;;;;;9.75;81.65;102359.38;5033861;28;45409;-76
2022/01/30 00:40:37;;;;;;;;;2.00;2.00;;;;;9.72;81.73;102365.50;5040309;28;45485;-77
2022/01/30 00:43:04;;;;;;;;;2.00;2.00;;;;;9.72;81.90;102356.69;5039024;28;45398;-76
2022/01/30 00:45:30;;;;;;;;;4.00;1.00;;;;;9.71;81.98;102347.88;5037739;28;45521;-76
2022/01/30 00:47:56;;;;;;;;;0.25;0.25;;;;;9.70;81.93;102356.69;5036941;28;45453;-76
2022/01/30 00:50:22;;;;;;;;;2.00;2.00;;;;;9.69;82.02;102365.44;5036780;28;45569;-75
2022/01/30 00:52:53;;;;;;;;;5.00;2.00;;;;;9.65;81.97;102345.16;5037272;28;45379;-77
2022/01/30 00:55:18;;;;;;;;;6.00;6.00;;;;;9.62;81.98;102337.19;5036748;28;45453;-76
2022/01/30 00:57:44;;;;;;;;;12.50;12.00;;;;;9.66;81.54;102344.28;5036784;28;46030;-77
2022/01/30 01:00:10;;;;;;;;;22.00;20.00;;;;;9.68;81.81;102346.94;5036348;28;45441;-76
2022/01/30 01:02:35;;;;;;;;;8.50;4.75;;;;;9.64;81.84;102346.03;5036842;28;45374;-77
2022/01/30 01:05:05;;;;;;;;;7.75;4.25;;;;;9.57;81.59;102333.63;5036649;28;45668;-76
2022/01/30 01:07:32;;;;;;;;;1.25;1.25;;;;;9.56;81.65;102331.84;5037132;28;46173;-76
2022/01/30 01:10:07;;;;;;;;;1.50;1.50;;;;;9.57;81.56;102333.63;5037060;28;45458;-76
2022/01/30 01:23:36;;;;;;;;;1.00;1.00;;;;;9.30;82.03;102313.94;5036700;28;45624;-76
2022/01/30 01:26:01;;;;;;;;;6.00;6.00;;;;;9.29;82.00;102311.28;5036284;28;45434;-76
2022/01/30 01:28:28;;;;;;;;;10.50;8.00;;;;;9.30;82.27;102319.22;5035869;28;46129;-76
2022/01/30 01:30:54;;;;;;;;;10.25;5.25;;;;;9.24;82.13;102311.22;5036079;28;45406;-76
2022/01/30 01:33:21;;;;;;;;;4.00;1.00;;;;;9.26;82.58;102322.66;5052104;28;45402;-76
2022/01/30 01:35:46;;;;;;;;;8.00;6.50;;;;;9.25;82.52;102331.47;5036824;28;45375;-77
2022/01/30 01:38:14;;;;;;;;;2.25;2.25;;;;;9.21;82.62;102324.38;5036453;28;45498;-78
2022/01/30 01:40:44;;;;;;;;;24.50;16.50;;;;;9.22;82.94;102315.59;5038279;28;45466;-76
2022/01/30 01:43:10;;;;;;;;;4.25;3.50;;;;;9.18;82.70;102319.91;5039287;28;45529;-76
2022/01/30 01:45:38;;;;;;;;;7.50;7.50;;;;;9.19;82.87;102320.84;5051107;28;45459;-76
2022/01/30 01:48:11;;;;;;;;;7.00;5.00;;;;;9.19;83.28;102320.84;5036386;28;45402;-75
2022/01/30 01:50:39;;;;;;;;;4.00;2.50;;;;;9.20;82.73;102319.94;5035168;28;45430;-77
2022/01/30 01:53:08;;;;;;;;;6.00;4.25;;;;;9.22;82.97;102320.88;5036206;28;45406;-77
2022/01/30 01:55:35;;;;;;;;;6.00;4.25;;;;;9.21;82.74;102322.59;5036449;28;45338;-76
2022/01/30 01:58:00;;;;;;;;;4.75;1.75;;;;;9.23;82.98;102326.16;5036158;28;45467;-76
2022/01/30 02:00:26;;;;;;;;;4.00;4.00;;;;;9.25;82.87;102326.19;5034721;28;45511;-76
2022/01/30 02:02:53;;;;;;;;;1.00;1.00;;;;;9.25;82.48;102315.63;5036235;28;45402;-76
2022/01/30 02:05:19;;;;;;;;;7.25;5.00;;;;;9.26;82.62;102325.28;5036096;28;45374;-76
2022/01/30 02:10:40;;;;;;;;;6.50;5.50;;;;;9.29;82.18;102327.09;5036026;28;45548;-77
2022/01/30 02:27:02;;;;;;;;;1.25;1.25;;;;;9.34;81.69;102305.19;5013244;28;45671;-76
2022/01/30 02:29:28;;;;;;;;;18.00;14.50;;;;;9.38;82.15;102311.38;5012878;28;45462;-76
2022/01/30 02:31:58;;;;;;;;;7.75;7.75;;;;;9.40;81.84;102310.53;5012996;28;45450;-80
2022/01/30 02:34:29;;;;;;;;;48.50;36.50;;;;;9.42;81.48;102311.44;5013451;28;45559;-81
2022/01/30 02:36:55;;;;;;;;;13.00;10.50;;;;;9.43;81.75;102310.59;5013512;28;45452;-80
2022/01/30 02:39:21;;;;;;;;;5.25;5.25;;;;;9.43;81.12;102304.44;5013939;28;46246;-81
2022/01/30 02:41:49;;;;;;;;;10.00;6.00;;;;;9.46;81.74;102307.09;5015390;28;45452;-81
2022/01/30 02:46:45;;;;;;;;;13.50;9.00;;;;;9.34;81.24;102284.06;5017228;28;45498;-81
2022/01/30 02:52:05;;;;;;;;;9.50;7.50;;;;;9.49;80.70;102303.59;4974062;28;45413;-80
2022/01/30 02:54:31;;;;;;;;;7.25;4.50;;;;;9.49;80.55;102303.59;4978915;28;45403;-81
2022/01/30 02:56:58;;;;;;;;;7.25;6.50;;;;;9.49;80.98;102314.16;4976067;28;45471;-80
2022/01/30 02:59:23;;;;;;;;;7.25;4.00;;;;;9.48;80.83;102315.91;4965813;28;45457;-80
2022/01/30 03:01:50;;;;;;;;;5.50;4.50;;;;;9.48;80.84;102310.63;4955805;28;45452;-80
2022/01/30 03:04:16;;;;;;;;;0.00;0.00;;;;;9.50;80.85;102315.94;4978139;28;45426;-80
2022/01/30 03:06:43;;;;;;;;;4.50;4.50;;;;;9.50;80.83;102308.00;4995278;28;45373;-80
2022/01/30 03:09:10;;;;;;;;;16.00;8.50;;;;;9.54;80.37;102321.25;4993730;28;46264;-79
2022/01/30 03:11:35;;;;;;;;;14.75;12.00;;;;;9.52;80.54;102317.72;4993295;28;45381;-80
2022/01/30 03:14:02;;;;;;;;;10.50;6.00;;;;;9.51;80.64;102310.66;5000763;28;45417;-80
2022/01/30 03:16:27;;;;;;;;;8.25;5.00;;;;;9.52;80.59;102312.44;4980348;28;45673;-80
2022/01/30 03:18:53;;;;;;;;;5.50;4.00;;;;;9.53;80.43;102313.31;4992688;28;46638;-81
2022/01/30 03:21:19;;;;;;;;;4.25;2.00;;;;;9.49;80.69;102316.78;4994027;28;45588;-80
2022/01/30 03:23:44;;;;;;;;;7.00;7.00;;;;;9.50;80.31;102311.53;4976892;28;45393;-80
2022/01/30 03:26:11;;;;;;;;;8.00;7.00;;;;;9.51;80.23;102313.31;4992631;28;45762;-80
2022/01/30 03:28:39;;;;;;;;;8.00;5.00;;;;;9.53;80.19;102313.31;5005966;28;45695;-79
2022/01/30 03:31:07;;;;;;;;;5.00;5.00;;;;;9.53;80.32;102310.69;5035030;28;45429;-80
2022/01/30 03:33:34;;;;;;;;;6.75;4.50;;;;;9.53;80.11;102319.47;5035412;28;45457;-80
2022/01/30 03:36:01;;;;;;;;;8.00;6.00;;;;;9.53;79.82;102322.13;5035318;28;45398;-80
2022/01/30 03:38:27;;;;;;;;;10.25;7.00;;;;;9.53;80.30;102319.47;5035527;28;46511;-79
2022/01/30 03:40:53;;;;;;;;;5.75;4.25;;;;;9.50;79.99;102326.50;5035087;28;45268;-80
2022/01/30 03:43:20;;;;;;;;;8.75;5.00;;;;;9.52;79.59;102316.81;5036512;28;45388;-81
2022/01/30 03:45:47;;;;;;;;;6.00;3.00;;;;;9.51;79.48;102310.66;5035864;28;45399;-81
2022/01/30 03:48:14;;;;;;;;;5.25;3.50;;;;;9.50;79.01;102321.22;5038549;28;45705;-80
2022/01/30 03:50:41;;;;;;;;;6.00;2.00;;;;;9.48;78.72;102318.56;5036375;28;45591;-80
2022/01/30 03:53:07;;;;;;;;;7.00;2.00;;;;;9.46;78.64;102309.75;5050633;28;45547;-80
2022/01/30 03:55:32;;;;;;;;;9.50;4.25;;;;;9.45;78.37;102307.09;5034848;28;45463;-80
2022/01/30 03:57:58;;;;;;;;;6.50;5.50;;;;;9.45;78.35;102317.66;5035160;28;45780;-81
2022/01/30 04:00:23;;;;;;;;;9.00;7.00;;;;;9.37;78.50;102294.69;5034345;28;45517;-81
2022/01/30 04:02:49;;;;;;;;;9.00;6.00;;;;;9.43;78.28;102307.94;5035050;28;45885;-80
2022/01/30 04:05:15;;;;;;;;;10.00;5.00;;;;;9.40;77.41;102321.09;5035148;28;45273;-80
2022/01/30 04:07:41;;;;;;;;;8.00;6.50;;;;;9.34;75.77;102322.78;5035018;28;46375;-81
2022/01/30 04:10:07;;;;;;;;;5.25;5.25;;;;;9.31;75.07;102315.72;5034482;28;45335;-80
2022/01/30 04:12:33;;;;;;;;;6.00;4.00;;;;;9.32;75.31;102327.13;5035235;28;45433;-81
2022/01/30 04:15:00;;;;;;;;;2.00;2.00;;;;;9.29;73.08;102330.63;5037923;28;45387;-81
2022/01/30 04:17:26;;;;;;;;;6.50;1.00;;;;;9.23;70.93;102325.25;5037890;28;45465;-80
2022/01/30 04:19:51;;;;;;;;;0.00;0.00;;;;;9.17;69.07;102327.81;5038354;28;45467;-80
2022/01/30 04:22:16;;;;;;;;;1.75;0.00;;;;;9.09;67.52;102324.19;5035594;28;45399;-80
2022/01/30 04:24:42;;;;;;;;;1.00;1.00;;;;;9.06;67.71;102320.66;5035409;28;45462;-79
2022/01/30 04:27:08;;;;;;;;;2.50;2.50;;;;;9.00;66.22;102328.50;5037201;28;45499;-80
2022/01/30 04:29:34;;;;;;;;;0.00;0.00;;;;;8.96;65.68;102318.75;5036508;28;45442;-80
2022/01/30 04:32:00;;;;;;;;;0.00;0.00;;;;;8.97;65.50;102331.06;5036969;28;45276;-80
2022/01/30 04:34:27;;;;;;;;;2.00;1.00;;;;;8.96;64.84;102331.03;5035919;28;45447;-80
2022/01/30 04:37:04;;;;;;;;;3.00;0.25;;;;;8.88;63.84;102330.94;5036055;28;46590;-81
2022/01/30 04:53:25;;;;;;;;;2.00;1.00;;;;;8.69;61.73;102346.47;4992523;28;45436;-80
2022/01/30 04:58:35;;;;;;;;;0.75;0.50;;;;;8.67;61.93;102348.19;4991448;28;45904;-80
2022/01/30 05:01:11;;;;;;;;;1.00;0.00;;;;;8.69;61.63;102346.47;4974009;28;45544;-81
2022/01/30 05:03:58;;;;;;;;;6.75;1.75;;;;;8.63;61.28;102341.09;4973214;28;45360;-80
2022/01/30 05:06:53;;;;;;;;;0.75;0.75;;;;;8.62;62.03;102354.25;4972473;28;45395;-80
2022/01/30 05:09:10;;;;;;;;;1.00;1.00;;;;;8.59;61.65;102347.19;4971066;28;45364;-81
2022/01/30 05:11:35;;;;;;;;;0.00;0.00;;;;;8.63;61.63;102346.38;4972244;28;45619;-81
2022/01/30 05:14:02;;;;;;;;;0.00;0.00;;;;;8.65;61.44;102362.22;4974806;28;45309;-80
2022/01/30 05:16:31;;;;;;;;;0.00;0.00;;;;;8.65;61.73;102355.19;4975533;28;45369;-80
2022/01/30 05:18:57;;;;;;;;;1.00;1.00;;;;;8.59;61.65;102357.72;4996347;28;47000;-80
2022/01/30 05:21:22;;;;;;;;;0.50;0.50;;;;;8.56;61.67;102349.75;5015451;28;45527;-80
2022/01/30 05:23:49;;;;;;;;;0.00;0.00;;;;;8.57;62.06;102351.53;5015442;28;45414;-81
2022/01/30 05:26:15;;;;;;;;;2.00;1.00;;;;;8.56;61.96;102360.31;5019175;28;45281;-80
2022/01/30 05:28:41;;;;;;;;;0.00;0.00;;;;;8.48;62.58;102347.00;5020395;28;46831;-80
2022/01/30 05:31:06;;;;;;;;;1.00;0.00;;;;;8.47;62.41;102355.78;5019040;28;45358;-81
2022/01/30 05:33:33;;;;;;;;;3.00;0.50;;;;;8.52;62.64;102374.31;5019362;28;45260;-81
2022/01/30 05:36:01;;;;;;;;;2.00;1.00;;;;;8.49;63.25;102379.53;5024735;28;45489;-80
2022/01/30 05:38:27;;;;;;;;;1.00;1.00;;;;;8.49;62.73;102374.25;5037472;28;45379;-80
2022/01/30 05:40:52;;;;;;;;;2.25;2.25;;;;;8.46;63.47;102374.22;5036721;28;45398;-80
2022/01/30 05:43:18;;;;;;;;;1.00;0.00;;;;;8.46;62.75;102374.22;5038685;28;45357;-80
2022/01/30 05:45:47;;;;;;;;;1.00;1.00;;;;;8.46;62.66;102374.22;5036975;28;45446;-80
2022/01/30 05:48:17;;;;;;;;;4.00;0.50;;;;;8.46;63.50;102379.47;5041557;28;46333;-81
2022/01/30 05:50:43;;;;;;;;;1.75;1.00;;;;;8.39;63.62;102367.91;5041462;28;45580;-80
2022/01/30 05:53:09;;;;;;;;;2.25;2.25;;;;;8.41;63.04;102378.47;5037512;28;45352;-79
2022/01/30 05:55:36;;;;;;;;;1.25;1.00;;;;;8.41;63.00;102382.00;5037131;28;45498;-80
2022/01/30 05:58:02;;;;;;;;;4.50;0.25;;;;;8.39;63.85;102377.56;5037856;28;45502;-80
2022/01/30 06:00:28;;;;;;;;;2.25;0.00;;;;;8.33;63.42;102375.69;5035852;28;45406;-80
2022/01/30 06:02:54;;;;;;;;;2.75;2.25;;;;;8.34;63.60;102380.13;5036528;28;45398;-80
2022/01/30 06:05:22;;;;;;;;;1.00;0.00;;;;;8.31;63.84;102383.56;5036495;28;45424;-81
2022/01/30 06:07:51;;;;;;;;;1.25;0.25;;;;;8.32;63.97;102382.72;5037259;28;46245;-80
2022/01/30 06:10:18;;;;;;;;;1.00;1.00;;;;;8.36;64.02;102386.28;5038708;28;45533;-80
2022/01/30 06:12:44;;;;;;;;;2.00;0.00;;;;;8.30;63.87;102384.41;5037682;28;45454;-80
2022/01/30 06:15:09;;;;;;;;;0.00;0.00;;;;;8.31;63.33;102380.94;5037138;28;45478;-80
2022/01/30 06:17:35;;;;;;;;;0.00;0.00;;;;;8.27;63.72;102384.38;5039620;28;46044;-80
2022/01/30 06:20:00;;;;;;;;;0.00;0.00;;;;;8.33;63.43;102394.13;5040851;28;45482;-80
2022/01/30 06:22:26;;;;;;;;;1.00;1.00;;;;;8.29;63.98;102406.38;5037352;28;45437;-80
2022/01/30 06:24:51;;;;;;;;;0.00;0.00;;;;;8.20;64.21;102393.03;5038603;28;45513;-80
2022/01/30 06:27:16;;;;;;;;;1.50;0.00;;;;;8.23;63.21;102397.44;5037275;28;45510;-80
2022/01/30 06:29:43;;;;;;;;;0.75;0.00;;;;;8.20;63.03;102403.56;5036745;28;45416;-79
2022/01/30 06:32:08;;;;;;;;;1.25;0.50;;;;;8.12;63.58;102411.34;5036227;28;45458;-79
2022/01/30 06:34:34;;;;;;;;;1.50;0.25;;;;;8.01;63.54;102390.03;5036766;28;45370;-79
2022/01/30 06:36:59;;;;;;;;;2.00;0.50;;;;;8.03;63.52;102397.09;5035938;28;45520;-80
2022/01/30 06:39:24;;;;;;;;;0.00;0.00;;;;;8.08;63.00;102416.50;5036719;28;45403;-79
2022/01/30 06:41:50;;;;;;;;;0.00;0.00;;;;;8.03;63.41;102395.31;5037136;28;45395;-80
2022/01/30 06:44:16;;;;;;;;;1.00;0.00;;;;;7.99;62.77;102409.31;5037163;28;45392;-80
2022/01/30 06:46:41;;;;;;;;;1.00;1.00;;;;;7.94;62.41;102406.59;5038435;28;46315;-80
2022/01/30 06:49:07;;;;;;;;;0.00;0.00;;;;;7.90;62.86;102404.75;5040990;28;45353;-80
2022/01/30 06:51:32;;;;;;;;;0.00;0.00;;;;;7.87;62.47;102409.94;5039406;28;45391;-79
2022/01/30 06:53:58;;;;;;;;;0.00;0.00;;;;;7.86;62.33;102412.56;5038521;28;45406;-80
2022/01/30 06:56:23;;;;;;;;;2.25;0.00;;;;;7.82;62.47;102403.72;5038162;28;46309;-81
2022/01/30 06:58:51;;;;;;;;;0.25;0.25;;;;;7.82;62.68;102407.22;5037198;28;45443;-80
2022/01/30 07:01:17;;;;;;;;;0.75;0.75;;;;;7.86;61.74;102407.28;5036485;28;45367;-80
2022/01/30 07:03:42;;;;;;;;;1.25;0.50;;;;;7.85;62.02;102416.94;5034557;28;45538;-81
2022/01/30 07:06:07;;;;;;;;;0.00;0.00;;;;;7.84;63.06;102404.63;5035616;28;46151;-80
2022/01/30 07:08:33;;;;;;;;;1.50;0.50;;;;;7.85;62.46;102410.75;5035974;28;45565;-81
2022/01/30 07:10:58;;;;;;;;;3.25;1.00;;;;;7.86;62.91;102413.44;5035967;28;45474;-80
2022/01/30 07:13:23;;;;;;;;;5.00;0.00;;;;;7.85;62.22;102409.03;5035899;28;45415;-79
2022/01/30 07:15:49;;;;;;;;;4.00;1.00;;;;;7.80;61.07;102410.66;5035564;28;51780;-79
2022/01/30 07:18:14;;;;;;;;;0.25;0.25;;;;;7.77;61.30;102414.16;5036077;28;45280;-75
2022/01/30 07:20:39;;;;;;;;;3.00;0.00;;;;;7.75;62.03;102415.84;5023580;28;45433;-77
2022/01/30 07:23:05;;;;;;;;;0.25;0.00;;;;;7.67;61.96;102420.06;5037059;28;45687;-75
2022/01/30 07:25:30;;;;;;;;;0.25;0.00;;;;;7.65;62.51;102427.94;5034510;28;45422;-75
2022/01/30 07:27:55;;;;;;;;;1.00;1.00;;;;;7.62;62.92;102432.22;5033681;28;45430;-77
2022/01/30 07:30:21;;;;;;;;;1.00;1.00;;;;;7.61;62.78;102436.59;5033374;28;45320;-77
2022/01/30 07:32:46;;;;;;;;;7.50;1.00;;;;;7.61;63.10;102441.88;5035401;28;45403;-76
2022/01/30 07:35:12;;;;;;;;;0.00;0.00;;;;;7.61;63.60;102448.91;5034325;28;45387;-76
2022/01/30 07:37:37;;;;;;;;;1.00;0.00;;;;;7.60;63.63;102445.34;5034604;28;45437;-76
2022/01/30 07:40:03;;;;;;;;;5.50;1.00;;;;;7.61;63.50;102460.28;5034859;28;46069;-76
2022/01/30 07:42:29;;;;;;;;;0.50;0.50;;;;;7.62;63.21;102455.91;5034572;28;45489;-76
2022/01/30 07:44:54;;;;;;;;;1.00;0.50;;;;;7.61;63.15;102449.78;5034593;28;46267;-76
2022/01/30 07:47:22;;;;;;;;;0.75;0.75;;;;;7.73;63.86;102464.03;5033835;28;45417;-76
2022/01/30 07:49:51;;;;;;;;;4.00;1.00;;;;;7.80;63.46;102463.31;5036021;28;45328;-76
2022/01/30 07:52:19;;;;;;;;;2.50;2.50;;;;;7.86;63.58;102459.94;5037739;28;45494;-76
2022/01/30 07:54:44;;;;;;;;;1.00;0.00;;;;;7.84;63.58;102444.13;5034702;28;45486;-77
2022/01/30 07:57:10;;;;;;;;;0.50;0.00;;;;;7.94;63.10;102469.78;5035013;28;45616;-77
2022/01/30 07:59:35;;;;;;;;;0.25;0.25;;;;;7.99;63.48;102462.84;5034797;28;45425;-77
2022/01/30 08:02:00;;;;;;;;;4.00;2.75;;;;;8.09;62.67;102479.75;5034317;28;45498;-76
2022/01/30 08:04:28;;;;;;;;;1.00;1.00;;;;;8.31;62.36;102477.53;5032940;28;47606;-81
2022/01/30 08:06:53;;;;;;;;;0.50;0.50;;;;;8.40;62.16;102474.22;5035863;28;45401;-81
2022/01/30 08:09:19;;;;;;;;;1.00;1.00;;;;;8.56;62.04;102473.66;5036718;28;45453;-81
2022/01/30 08:11:46;;;;;;;;;3.00;1.00;;;;;9.04;60.43;102483.28;5035392;28;45312;-81
2022/01/30 08:14:12;;;;;;;;;1.00;1.00;;;;;9.16;59.77;102473.81;5036564;28;46271;-81
2022/01/30 08:16:38;;;;;;;;;2.00;2.00;;;;;9.02;59.78;102482.38;5035299;28;45441;-81
2022/01/30 08:19:04;;;;;;;;;0.00;0.00;;;;;8.87;59.94;102480.38;5037398;28;45433;-80
2022/01/30 08:21:29;;;;;;;;;1.00;1.00;;;;;8.85;60.26;102490.00;5041050;28;45440;-81
2022/01/30 08:23:56;;;;;;;;;4.00;0.00;;;;;8.79;59.98;102470.53;5040531;28;46207;-80
2022/01/30 08:26:22;;;;;;;;;3.25;1.00;;;;;9.04;60.63;102488.56;5036134;28;45410;-81
2022/01/30 08:28:47;;;;;;;;;5.50;2.00;;;;;8.93;59.23;102469.03;5034933;28;45407;-81
2022/01/30 08:31:12;;;;;;;;;1.00;1.00;;;;;9.09;59.68;102485.13;5041766;28;45336;-80
2022/01/30 08:33:38;;;;;;;;;0.75;0.75;;;;;9.21;59.25;102480.03;5045473;28;45447;-81
2022/01/30 08:36:03;;;;;;;;;3.00;1.00;;;;;9.40;58.21;102475.94;5035580;28;45390;-81
2022/01/30 08:38:29;;;;;;;;;2.50;0.75;;;;;9.91;57.44;102482.78;5036540;28;45406;-81
2022/01/30 08:40:54;;;;;;;;;3.00;0.25;;;;;10.34;55.75;102471.91;5036671;28;45580;-82
2022/01/30 08:43:21;;;;;;;;;0.00;0.00;;;;;10.59;54.33;102443.06;5035446;28;45488;-81
2022/01/30 08:45:49;;;;;;;;;2.25;2.25;;;;;11.29;53.13;102466.56;5034294;28;45425;-81
2022/01/30 08:48:15;;;;;;;;;2.00;1.00;;;;;11.66;52.18;102465.91;5035854;28;45402;-80
2022/01/30 08:50:41;;;;;;;;;4.00;0.00;;;;;12.49;50.21;102466.25;5039379;28;45474;-81
2022/01/30 08:53:06;;;;;;;;;1.25;0.25;;;;;13.12;47.00;102463.66;5041710;28;45481;-81
2022/01/30 08:55:33;;;;;;;;;2.00;1.00;;;;;13.62;45.34;102469.81;5039997;28;45321;-81
2022/01/30 08:58:07;;;;;;;;;3.75;0.75;;;;;14.04;44.50;102461.66;5035995;28;45414;-81
2022/01/30 09:00:33;;;;;;;;;3.75;1.00;;;;;14.44;43.34;102466.78;5017077;28;45614;-81
2022/01/30 09:02:59;;;;;;;;;1.00;1.00;;;;;15.01;42.38;102461.06;5018187;28;46176;-81
2022/01/30 09:05:25;;;;;;;;;1.25;0.00;;;;;15.31;41.59;102463.47;5018977;28;45337;-82
2022/01/30 09:07:50;;;;;;;;;0.00;0.00;;;;;15.44;40.94;102457.09;5020127;28;45489;-81
2022/01/30 09:10:15;;;;;;;;;1.00;0.25;;;;;15.71;40.16;102471.88;5021183;28;45657;-81
2022/01/30 09:12:41;;;;;;;;;6.00;1.00;;;;;15.90;40.04;102463.72;5032112;28;45321;-81
2022/01/30 09:15:08;;;;;;;;;0.00;0.00;;;;;16.19;39.66;102459.81;5035571;28;45252;-80
2022/01/30 09:17:35;;;;;;;;;3.00;1.50;;;;;16.60;38.87;102452.97;5036997;28;44779;-82
2022/01/30 09:20:00;;;;;;;;;0.00;0.00;;;;;16.96;37.87;102455.97;5037817;28;45312;-81
2022/01/30 09:22:26;;;;;;;;;0.75;0.75;;;;;17.16;37.54;102448.50;5033798;28;46317;-81
2022/01/30 09:24:51;;;;;;;;;0.00;0.00;;;;;17.54;37.21;102454.91;5024924;28;45420;-80
2022/01/30 09:27:17;;;;;;;;;0.75;0.75;;;;;17.71;36.14;102443.00;5023788;28;45499;-80
2022/01/30 09:29:44;;;;;;;;;4.75;1.25;;;;;17.51;35.81;102475.47;5019395;28;45477;-81
2022/01/30 09:32:11;;;;;;;;;0.75;0.00;;;;;16.63;36.66;102468.94;5039008;28;45328;-81
2022/01/30 09:34:37;;;;;;;;;0.75;0.00;;;;;16.39;37.41;102470.19;5038544;28;45382;-80
2022/01/30 09:37:05;;;;;;;;;0.00;0.00;;;;;16.34;37.40;102467.59;5038370;28;45410;-81
2022/01/30 09:39:31;;;;;;;;;0.00;0.00;;;;;16.35;37.83;102472.00;5037430;28;45446;-80
2022/01/30 09:41:57;;;;;;;;;2.00;0.50;;;;;16.03;37.83;102477.78;5037847;28;46362;-81
2022/01/30 09:44:23;;;;;;;;;2.50;1.00;;;;;16.12;37.71;102472.31;5027869;28;45560;-81
2022/01/30 09:46:50;;;;;;;;;0.25;0.25;;;;;16.46;37.74;102483.41;5017975;28;45540;-80
2022/01/30 09:49:18;;;;;;;;;0.25;0.00;;;;;16.36;37.39;102487.09;5018150;28;45580;-81
2022/01/30 09:51:43;;;;;;;;;2.00;0.50;;;;;16.22;37.30;102478.44;5021254;28;47504;-81
2022/01/30 09:54:09;;;;;;;;;1.00;0.75;;;;;16.31;36.62;102479.16;5024419;28;45460;-80
2022/01/30 09:56:35;;;;;;;;;0.00;0.00;;;;;16.21;37.23;102477.53;5018555;28;45392;-81
2022/01/30 09:59:01;;;;;;;;;2.75;0.25;;;;;16.62;37.21;102477.84;5025014;28;45481;-81
2022/01/30 10:01:32;;;;;;;;;1.00;1.00;;;;;16.83;36.09;102474.81;5037653;28;45512;-81
2022/01/30 10:03:58;;;;;;;;;0.00;0.00;;;;;16.90;36.31;102450.72;5038849;28;45409;-81
2022/01/30 10:06:30;;;;;;;;;1.25;1.00;;;;;17.18;36.06;102473.38;5038856;28;45471;-81
2022/01/30 10:08:57;;;;;;;;;1.00;1.00;;;;;17.79;35.31;102470.44;5039662;28;45344;-81
2022/01/30 10:11:35;;;;;;;;;5.00;1.00;;;;;18.32;34.89;102459.53;5036418;28;45321;-83
2022/01/30 10:14:11;;;;;;;;;2.00;1.00;;;;;18.53;33.65;102463.50;5037352;28;45387;-80
2022/01/30 10:16:42;;;;;;;;;3.50;1.50;;;;;18.29;33.92;102468.53;5036368;28;45433;-81
2022/01/30 10:19:10;;;;;;;;;2.75;1.50;;;;;18.41;33.88;102469.16;5037807;28;45516;-81
2022/01/30 10:21:36;;;;;;;;;3.00;1.00;;;;;18.73;33.08;102473.75;5037933;28;45490;-81
2022/01/30 10:24:17;;;;;;;;;0.00;0.00;;;;;18.88;33.10;102469.84;5044495;28;45363;-79
2022/01/30 10:26:42;;;;;;;;;2.00;2.00;;;;;18.94;32.89;102469.69;5038810;28;45350;-81
2022/01/30 10:29:22;;;;;;;;;0.00;0.00;;;;;18.85;33.27;102461.88;5038543;28;45508;-80
2022/01/30 10:32:07;;;;;;;;;1.50;1.00;;;;;18.34;33.40;102460.41;5037164;28;46290;-81
2022/01/30 10:34:35;;;;;;;;;1.00;0.00;;;;;18.28;33.13;102464.09;5034903;28;45591;-81
2022/01/30 10:37:19;;;;;;;;;0.00;0.00;;;;;18.47;33.36;102463.66;5037192;28;45417;-81
2022/01/30 10:40:18;;;;;;;;;2.00;1.00;;;;;18.92;32.50;102466.19;5037972;28;45610;-82
2022/01/30 10:42:49;;;;;;;;;1.75;1.00;;;;;19.04;32.37;102453.38;5035835;28;46336;-81
2022/01/30 10:45:28;;;;;;;;;1.75;1.75;;;;;19.27;32.27;102464.38;5044189;28;45403;-82
2022/01/30 10:48:16;;;;;;;;;1.75;1.75;;;;;19.65;31.77;102457.06;5047180;28;45392;-81
2022/01/30 10:50:44;;;;;;;;;4.00;1.75;;;;;20.09;31.38;102453.13;5054764;28;45408;-81
2022/01/30 10:53:21;;;;;;;;;2.75;1.00;;;;;20.54;30.75;102458.00;5058521;28;45296;-80
2022/01/30 10:55:47;;;;;;;;;1.00;0.00;;;;;20.84;30.17;102460.66;5048446;28;44733;-81
2022/01/30 10:58:16;;;;;;;;;3.00;1.00;;;;;20.83;29.86;102458.88;5045056;28;45324;-82
2022/01/30 11:00:49;;;;;;;;;2.50;1.00;;;;;20.72;29.95;102457.44;5040690;28;45560;-82
2022/01/30 11:03:37;;;;;;;;;5.75;2.00;;;;;20.72;29.70;102457.44;5038203;28;45520;-81
2022/01/30 11:06:08;;;;;;;;;2.25;1.25;;;;;20.84;30.49;102448.06;5039539;28;45459;-82
2022/01/30 11:08:35;;;;;;;;;1.00;1.00;;;;;21.02;29.56;102453.78;5041593;28;45320;-82
2022/01/30 11:11:13;;;;;;;;;1.50;1.00;;;;;20.80;29.69;102443.75;5037494;28;45368;-81
2022/01/30 11:14:52;;;;;;;;;1.00;1.00;;;;;20.42;30.09;102462.84;5037284;28;46901;-81
2022/01/30 11:19:21;;;;;;;;;1.00;1.00;;;;;20.27;30.23;102447.22;5036892;28;45336;-82
2022/01/30 11:21:51;;;;;;;;;2.00;1.50;;;;;19.95;30.21;102443.72;5038759;28;45363;-82
2022/01/30 11:24:19;;;;;;;;;3.25;1.75;;;;;19.72;30.77;102433.63;5041820;28;45484;-82
2022/01/30 11:26:45;;;;;;;;;2.00;2.00;;;;;19.69;31.07;102437.28;5040859;28;45497;-83
2022/01/30 11:29:13;;;;;;;;;2.75;0.75;;;;;19.67;30.91;102420.34;5037009;28;45351;-81
2022/01/30 11:31:39;;;;;;;;;4.50;1.75;;;;;19.83;30.83;102438.69;5036484;28;45573;-82
2022/01/30 11:34:05;;;;;;;;;3.00;1.50;;;;;19.78;30.59;102433.47;5036524;28;45442;-82
2022/01/30 11:36:43;;;;;;;;;2.00;1.00;;;;;19.80;30.66;102420.00;5036390;28;45475;-82
2022/01/30 11:39:14;;;;;;;;;2.00;2.00;;;;;19.93;30.62;102424.09;5036364;28;45361;-82
2022/01/30 11:41:40;;;;;;;;;1.25;1.25;;;;;19.74;30.93;102418.38;5035883;28;45519;-82
2022/01/30 11:44:39;;;;;;;;;5.00;3.50;;;;;19.39;31.30;102416.69;5036658;28;45773;-81
2022/01/30 11:47:07;;;;;;;;;6.00;2.00;;;;;18.90;31.79;102413.53;4977350;28;45512;-82
2022/01/30 11:49:44;;;;;;;;;6.00;2.00;;;;;18.95;32.21;102409.84;4976117;28;45422;-82
2022/01/30 11:52:11;;;;;;;;;2.00;2.00;;;;;18.95;31.98;102395.56;4976989;28;45527;-82
2022/01/30 11:54:39;;;;;;;;;3.00;2.00;;;;;18.95;32.36;102401.81;4963117;28;46886;-83
2022/01/30 11:57:25;;;;;;;;;2.75;2.00;;;;;19.34;31.57;102401.66;4979736;28;45310;-82
2022/01/30 12:00:01;;;;;;;;;9.00;3.00;;;;;19.58;30.99;102395.63;4955324;28;45347;-81
2022/01/30 12:02:33;;;;;;;;;3.00;3.00;;;;;19.80;30.98;102394.09;4957665;28;45740;-82
2022/01/30 12:05:07;;;;;;;;;1.50;1.50;;;;;20.26;30.44;102388.22;4955414;28;47280;-82
2022/01/30 12:07:35;;;;;;;;;4.00;1.75;;;;;20.53;29.95;102376.56;4956110;28;45414;-80
2022/01/30 12:10:16;;;;;;;;;16.00;13.50;;;;;20.75;29.98;102384.78;4956392;28;45332;-82
2022/01/30 12:13:09;;;;;;;;;64.75;56.25;;;;;20.13;30.08;102382.34;4955179;28;45456;-82
2022/01/30 12:15:41;;;;;;;;;6.00;6.00;;;;;19.09;31.52;102388.03;4954183;28;46421;-82
2022/01/30 12:18:08;;;;;;;;;2.00;2.00;;;;;18.38;32.60;102389.81;4955235;28;45944;-81
2022/01/30 12:20:59;;;;;;;;;2.25;2.25;;;;;18.34;32.91;102384.56;4937417;28;45819;-78
2022/01/30 12:23:28;;;;;;;;;70.50;60.25;;;;;18.85;32.50;102370.81;5018651;28;45533;-78
2022/01/30 12:25:57;;;;;;;;;99.00;82.00;;;;;18.73;32.84;102363.06;5036511;28;46244;-76
2022/01/30 12:28:40;;;;;;;;;7.50;7.50;;;;;18.06;33.34;102343.28;5037313;28;45434;-77